Time;durP1;ratioP1;P1;durP2;ratioP2;P2;SDS_P1;SDS_P2;PMS_P1;PMS_P2;Temp;Humidity;BMP_temperature;BMP_pressure;BME280_temperature;BME280_humidity;BME280_pressure;Samples;Min_cycle;Max_cycle;Signal;HPM_P1;HPM_P2
2023/05/12 00:01:10;;;;;;;15.87;11.97;;;;;;;;;;5033537;28;20464;-79
2023/05/12 00:03:41;;;;;;;10.20;9.23;;;;;;;;;;5032731;28;20487;-79
2023/05/12 00:06:08;;;;;;;11.90;10.23;;;;;;;;;;5033905;28;20788;-80
2023/05/12 00:08:34;;;;;;;13.27;11.97;;;;;;;;;;5032996;28;20839;-80
2023/05/12 00:11:01;;;;;;;12.30;11.00;;;;;;;;;;5032580;28;20814;-81
2023/05/12 00:13:29;;;;;;;11.57;10.43;;;;;;;;;;5033491;28;20463;-81
2023/05/12 00:15:57;;;;;;;13.63;12.23;;;;;;;;;;5034306;28;20454;-79
2023/05/12 00:18:23;;;;;;;11.50;10.37;;;;;;;;;;5034814;28;20897;-81
2023/05/12 00:20:54;;;;;;;13.50;11.10;;;;;;;;;;5030776;28;20879;-81
2023/05/12 00:23:21;;;;;;;13.13;11.83;;;;;;;;;;5028033;28;20437;-81
2023/05/12 00:25:47;;;;;;;11.83;10.63;;;;;;;;;;5031464;28;20459;-81
2023/05/12 00:28:13;;;;;;;13.20;11.90;;;;;;;;;;5034455;28;20958;-80
2023/05/12 00:30:41;;;;;;;12.30;11.10;;;;;;;;;;5034477;28;20430;-80
2023/05/12 00:33:08;;;;;;;14.27;12.03;;;;;;;;;;5031655;28;20504;-80
2023/05/12 00:35:34;;;;;;;20.20;13.37;;;;;;;;;;5032268;28;20830;-81
2023/05/12 00:38:00;;;;;;;16.47;14.63;;;;;;;;;;5031556;28;20450;-80
2023/05/12 00:40:27;;;;;;;18.47;15.20;;;;;;;;;;5034053;28;20440;-81
2023/05/12 00:42:53;;;;;;;15.23;13.73;;;;;;;;;;5030792;28;20443;-81
2023/05/12 00:45:20;;;;;;;19.60;16.43;;;;;;;;;;5031290;28;20474;-81
2023/05/12 00:47:51;;;;;;;24.33;20.00;;;;;;;;;;5014837;28;20476;-81
2023/05/12 00:50:17;;;;;;;25.83;19.43;;;;;;;;;;5031575;28;20445;-81
2023/05/12 00:52:44;;;;;;;24.50;20.63;;;;;;;;;;5029794;28;20478;-81
2023/05/12 00:55:10;;;;;;;32.67;24.80;;;;;;;;;;5033249;28;20469;-81
2023/05/12 00:57:37;;;;;;;30.80;23.43;;;;;;;;;;5034008;28;20855;-79
2023/05/12 01:00:06;;;;;;;32.30;23.10;;;;;;;;;;5033198;28;20420;-81
2023/05/12 01:02:33;;;;;;;38.63;25.80;;;;;;;;;;5030487;28;20579;-80
2023/05/12 01:05:01;;;;;;;34.40;27.37;;;;;;;;;;5029194;28;20504;-79
2023/05/12 01:07:31;;;;;;;35.80;25.07;;;;;;;;;;5030254;28;20452;-81
2023/05/12 01:09:58;;;;;;;32.03;26.23;;;;;;;;;;5033213;28;20942;-81
2023/05/12 01:12:26;;;;;;;34.03;25.93;;;;;;;;;;5032867;28;20821;-80
2023/05/12 01:14:53;;;;;;;38.83;27.53;;;;;;;;;;5031530;28;20693;-81
2023/05/12 01:17:20;;;;;;;32.83;23.70;;;;;;;;;;5027201;28;20987;-81
2023/05/12 01:19:48;;;;;;;38.00;26.23;;;;;;;;;;5032586;28;20514;-81
2023/05/12 01:22:17;;;;;;;33.87;26.23;;;;;;;;;;5032398;28;20454;-81
2023/05/12 01:24:47;;;;;;;32.03;26.17;;;;;;;;;;5028751;28;21127;-81
2023/05/12 01:27:15;;;;;;;40.37;27.03;;;;;;;;;;5032776;28;20509;-81
2023/05/12 01:29:42;;;;;;;38.60;27.07;;;;;;;;;;5031531;28;20452;-81
2023/05/12 01:32:09;;;;;;;37.50;28.47;;;;;;;;;;5026866;28;20467;-81
2023/05/12 01:34:36;;;;;;;44.10;29.80;;;;;;;;;;5032145;28;20480;-81
2023/05/12 01:37:02;;;;;;;37.23;30.00;;;;;;;;;;5030981;28;21045;-81
2023/05/12 01:39:29;;;;;;;41.10;28.97;;;;;;;;;;5027672;28;20460;-81
2023/05/12 01:41:55;;;;;;;51.40;30.10;;;;;;;;;;5027833;28;20480;-81
2023/05/12 01:44:23;;;;;;;45.73;30.03;;;;;;;;;;5014674;28;20475;-81
2023/05/12 01:46:50;;;;;;;44.30;29.70;;;;;;;;;;5023770;28;20994;-81
2023/05/12 01:49:17;;;;;;;46.77;32.53;;;;;;;;;;5031672;28;20503;-81
2023/05/12 01:51:43;;;;;;;42.63;31.00;;;;;;;;;;5016175;28;20990;-81
2023/05/12 01:54:10;;;;;;;44.67;31.87;;;;;;;;;;5029138;28;20495;-81
2023/05/12 01:56:37;;;;;;;41.50;30.67;;;;;;;;;;5031953;28;20840;-81
2023/05/12 01:59:03;;;;;;;44.13;31.50;;;;;;;;;;5026429;28;20820;-81
2023/05/12 02:01:31;;;;;;;49.20;32.50;;;;;;;;;;5034253;28;20483;-81
2023/05/12 02:03:58;;;;;;;51.70;33.53;;;;;;;;;;5020997;28;20432;-81
2023/05/12 02:06:25;;;;;;;42.10;30.33;;;;;;;;;;5032442;28;20844;-81
2023/05/12 02:08:52;;;;;;;53.70;36.33;;;;;;;;;;5028728;28;21028;-81
2023/05/12 02:11:18;;;;;;;48.87;34.50;;;;;;;;;;5032380;28;20842;-80
2023/05/12 02:13:45;;;;;;;56.07;34.10;;;;;;;;;;5012782;28;20490;-81
2023/05/12 02:16:11;;;;;;;45.23;32.20;;;;;;;;;;5032368;28;20472;-81
2023/05/12 02:18:39;;;;;;;51.23;34.40;;;;;;;;;;5025542;28;20427;-81
2023/05/12 02:21:06;;;;;;;49.07;34.50;;;;;;;;;;5029196;28;20461;-81
2023/05/12 02:23:32;;;;;;;50.53;35.37;;;;;;;;;;5014278;28;20448;-81
2023/05/12 02:25:58;;;;;;;52.20;34.17;;;;;;;;;;5030878;28;20856;-81
2023/05/12 02:28:25;;;;;;;45.67;33.20;;;;;;;;;;5035622;28;20442;-79
2023/05/12 02:30:51;;;;;;;47.63;31.47;;;;;;;;;;5030301;28;20448;-80
2023/05/12 02:33:18;;;;;;;52.40;35.50;;;;;;;;;;5036557;28;20503;-79
2023/05/12 02:35:46;;;;;;;52.17;35.20;;;;;;;;;;5035409;28;20464;-79
2023/05/12 02:38:12;;;;;;;45.20;32.57;;;;;;;;;;5033150;28;20468;-80
2023/05/12 02:40:39;;;;;;;47.70;32.90;;;;;;;;;;5034249;28;20796;-79
2023/05/12 02:43:06;;;;;;;40.93;31.80;;;;;;;;;;5034151;28;20470;-80
2023/05/12 02:45:32;;;;;;;42.77;32.03;;;;;;;;;;5034374;28;20431;-81
2023/05/12 02:47:59;;;;;;;49.57;34.20;;;;;;;;;;5029659;28;20447;-79
2023/05/12 02:50:25;;;;;;;48.10;32.23;;;;;;;;;;5036148;28;20448;-80
2023/05/12 02:52:53;;;;;;;47.40;32.50;;;;;;;;;;5035543;28;20484;-80
2023/05/12 02:55:19;;;;;;;47.90;31.90;;;;;;;;;;5031744;28;20497;-81
2023/05/12 02:57:45;;;;;;;46.37;30.70;;;;;;;;;;5030835;28;20477;-81
2023/05/12 03:00:12;;;;;;;44.63;30.50;;;;;;;;;;5033547;28;20484;-80
2023/05/12 03:02:39;;;;;;;48.43;30.30;;;;;;;;;;5035217;28;20472;-80
2023/05/12 03:05:06;;;;;;;43.80;29.40;;;;;;;;;;5035872;28;20477;-81
2023/05/12 03:07:32;;;;;;;48.60;30.77;;;;;;;;;;5033868;28;20483;-81
2023/05/12 03:10:01;;;;;;;45.00;31.43;;;;;;;;;;5033986;28;20447;-81
2023/05/12 03:12:28;;;;;;;42.90;31.07;;;;;;;;;;5035089;28;20828;-80
2023/05/12 03:14:55;;;;;;;47.57;31.93;;;;;;;;;;5030711;28;20512;-81
2023/05/12 03:17:22;;;;;;;38.90;29.33;;;;;;;;;;5031886;28;20586;-81
2023/05/12 03:19:48;;;;;;;39.90;29.30;;;;;;;;;;5035188;28;20477;-80
2023/05/12 03:22:16;;;;;;;42.50;30.67;;;;;;;;;;5035042;28;20472;-80
2023/05/12 03:24:42;;;;;;;42.30;31.00;;;;;;;;;;5034001;28;20472;-80
2023/05/12 03:27:10;;;;;;;41.60;28.77;;;;;;;;;;5035723;28;20495;-80
2023/05/12 03:29:36;;;;;;;48.47;33.27;;;;;;;;;;5034915;28;20462;-81
2023/05/12 03:32:03;;;;;;;44.27;32.10;;;;;;;;;;5031498;28;20455;-81
2023/05/12 03:34:29;;;;;;;47.33;29.97;;;;;;;;;;5030355;28;20997;-80
2023/05/12 03:36:57;;;;;;;43.93;30.67;;;;;;;;;;5036526;28;20476;-81
2023/05/12 03:39:23;;;;;;;36.97;26.40;;;;;;;;;;5033081;28;20836;-81
2023/05/12 03:41:50;;;;;;;37.73;26.30;;;;;;;;;;5017638;28;20472;-79
2023/05/12 03:44:18;;;;;;;39.73;27.80;;;;;;;;;;5014256;28;20476;-81
2023/05/12 03:46:45;;;;;;;42.40;29.37;;;;;;;;;;5031831;28;20603;-80
2023/05/12 03:49:11;;;;;;;43.90;30.50;;;;;;;;;;5034027;28;20432;-81
2023/05/12 03:51:38;;;;;;;43.13;30.93;;;;;;;;;;5034400;28;21023;-80
2023/05/12 03:54:04;;;;;;;47.23;32.57;;;;;;;;;;5030611;28;20459;-80
2023/05/12 03:56:31;;;;;;;47.23;33.97;;;;;;;;;;5034542;28;20468;-81
2023/05/12 03:58:57;;;;;;;49.57;34.80;;;;;;;;;;5032797;28;20453;-80
2023/05/12 04:01:25;;;;;;;48.63;34.10;;;;;;;;;;5029984;28;20468;-80
2023/05/12 04:03:51;;;;;;;51.57;34.00;;;;;;;;;;5033181;28;20939;-80
2023/05/12 04:06:18;;;;;;;47.97;34.57;;;;;;;;;;5033359;28;20480;-81
2023/05/12 04:08:45;;;;;;;51.73;34.00;;;;;;;;;;5033130;28;20452;-80
2023/05/12 04:11:12;;;;;;;48.43;34.13;;;;;;;;;;5029917;28;20450;-80
2023/05/12 04:13:39;;;;;;;47.07;34.83;;;;;;;;;;5028693;28;20546;-80
2023/05/12 04:16:08;;;;;;;46.73;31.73;;;;;;;;;;5031765;28;22040;-80
2023/05/12 04:18:36;;;;;;;48.63;35.77;;;;;;;;;;5034472;28;20448;-80
2023/05/12 04:21:02;;;;;;;41.77;29.67;;;;;;;;;;5034068;28;20420;-80
2023/05/12 04:23:29;;;;;;;48.37;33.70;;;;;;;;;;5034192;28;20467;-80
2023/05/12 04:25:55;;;;;;;46.90;34.07;;;;;;;;;;5033625;28;20476;-80
2023/05/12 04:28:22;;;;;;;45.33;32.73;;;;;;;;;;5034623;28;20449;-80
2023/05/12 04:30:48;;;;;;;47.40;33.17;;;;;;;;;;5029118;28;20456;-80
2023/05/12 04:33:14;;;;;;;43.90;32.07;;;;;;;;;;5034490;28;20426;-81
2023/05/12 04:35:42;;;;;;;46.20;31.70;;;;;;;;;;5033618;28;20450;-80
2023/05/12 04:38:08;;;;;;;45.57;31.20;;;;;;;;;;5028519;28;20469;-80
2023/05/12 04:40:35;;;;;;;45.13;31.60;;;;;;;;;;5033755;28;20460;-79
2023/05/12 04:43:03;;;;;;;40.73;28.00;;;;;;;;;;5033451;28;20455;-81
2023/05/12 04:45:30;;;;;;;43.60;31.00;;;;;;;;;;5030796;28;20451;-80
2023/05/12 04:47:56;;;;;;;42.47;30.37;;;;;;;;;;5031694;28;20458;-80
2023/05/12 04:50:23;;;;;;;44.00;32.40;;;;;;;;;;5029879;28;20433;-81
2023/05/12 04:52:51;;;;;;;47.67;32.53;;;;;;;;;;5028971;28;20458;-80
2023/05/12 04:55:17;;;;;;;43.67;33.20;;;;;;;;;;5032322;28;20574;-80
2023/05/12 04:57:43;;;;;;;42.97;32.77;;;;;;;;;;5034022;28;20476;-80
2023/05/12 05:00:11;;;;;;;47.13;31.80;;;;;;;;;;5035593;28;20431;-80
2023/05/12 05:02:37;;;;;;;51.23;34.87;;;;;;;;;;5032798;28;20483;-80
2023/05/12 05:05:04;;;;;;;48.10;33.17;;;;;;;;;;5033772;28;20469;-80
2023/05/12 05:07:30;;;;;;;51.70;33.63;;;;;;;;;;5029831;28;20515;-80
2023/05/12 05:09:58;;;;;;;46.20;34.80;;;;;;;;;;5003843;28;20506;-80
2023/05/12 05:12:26;;;;;;;48.70;34.37;;;;;;;;;;5033459;28;20472;-80
2023/05/12 05:14:53;;;;;;;47.20;33.30;;;;;;;;;;5028357;28;20492;-80
2023/05/12 05:17:19;;;;;;;48.40;35.20;;;;;;;;;;5032159;28;20468;-81
2023/05/12 05:19:45;;;;;;;50.50;37.30;;;;;;;;;;5015940;28;20453;-80
2023/05/12 05:22:13;;;;;;;46.40;35.20;;;;;;;;;;5029768;28;20482;-80
2023/05/12 05:24:39;;;;;;;46.63;35.20;;;;;;;;;;5028051;28;20472;-80
2023/05/12 05:27:08;;;;;;;54.10;37.13;;;;;;;;;;5032857;28;20451;-80
2023/05/12 05:29:34;;;;;;;44.20;34.97;;;;;;;;;;5030657;28;20445;-80
2023/05/12 05:32:01;;;;;;;51.17;36.63;;;;;;;;;;5031277;28;20852;-81
2023/05/12 05:34:27;;;;;;;48.40;34.20;;;;;;;;;;5032718;28;20485;-80
2023/05/12 05:36:54;;;;;;;48.10;36.27;;;;;;;;;;5030886;28;20478;-80
2023/05/12 05:39:21;;;;;;;48.60;35.20;;;;;;;;;;5032769;28;20487;-80
2023/05/12 05:41:47;;;;;;;48.00;34.97;;;;;;;;;;5032280;28;20522;-80
2023/05/12 05:44:15;;;;;;;42.37;35.30;;;;;;;;;;5035440;28;20476;-79
2023/05/12 05:46:41;;;;;;;44.63;33.23;;;;;;;;;;5032774;28;20440;-80
2023/05/12 05:49:08;;;;;;;43.10;32.30;;;;;;;;;;5033183;28;20475;-79
2023/05/12 05:51:34;;;;;;;44.97;33.23;;;;;;;;;;5024842;28;20986;-79
2023/05/12 05:54:01;;;;;;;40.53;32.70;;;;;;;;;;5033068;28;20516;-79
2023/05/12 05:56:29;;;;;;;51.20;34.80;;;;;;;;;;5026062;28;20443;-79
2023/05/12 05:58:55;;;;;;;42.40;31.73;;;;;;;;;;5033631;28;20435;-79
2023/05/12 06:01:23;;;;;;;42.93;33.63;;;;;;;;;;5020439;28;20527;-79
2023/05/12 06:03:50;;;;;;;46.33;33.20;;;;;;;;;;5032271;28;20841;-79
2023/05/12 06:06:17;;;;;;;36.07;29.03;;;;;;;;;;5028499;28;20443;-80
2023/05/12 06:08:45;;;;;;;38.83;29.37;;;;;;;;;;5034559;28;20954;-81
2023/05/12 06:11:11;;;;;;;33.10;28.60;;;;;;;;;;5002762;28;20522;-81
2023/05/12 06:13:38;;;;;;;37.43;29.30;;;;;;;;;;5034113;28;20481;-80
2023/05/12 06:16:05;;;;;;;30.13;26.33;;;;;;;;;;5032232;28;20801;-81
2023/05/12 06:18:36;;;;;;;36.53;28.03;;;;;;;;;;5032911;28;20511;-81
2023/05/12 06:21:02;;;;;;;33.07;26.80;;;;;;;;;;5032006;28;20478;-82
2023/05/12 06:23:29;;;;;;;32.20;26.63;;;;;;;;;;5033096;28;20460;-80
2023/05/12 06:25:55;;;;;;;28.17;24.47;;;;;;;;;;5032666;28;20483;-79
2023/05/12 06:28:22;;;;;;;30.30;25.10;;;;;;;;;;5029933;28;20431;-79
2023/05/12 06:30:49;;;;;;;26.67;23.70;;;;;;;;;;5031647;28;20455;-79
2023/05/12 06:33:15;;;;;;;24.30;20.80;;;;;;;;;;5012662;28;20556;-79
2023/05/12 06:35:43;;;;;;;25.90;22.13;;;;;;;;;;5030671;28;20542;-79
2023/05/12 06:38:09;;;;;;;25.33;22.37;;;;;;;;;;5032052;28;20477;-81
2023/05/12 06:40:36;;;;;;;24.67;22.00;;;;;;;;;;5029806;28;20956;-81
2023/05/12 06:43:02;;;;;;;27.47;22.37;;;;;;;;;;5031957;28;20462;-80
2023/05/12 06:45:28;;;;;;;35.93;24.50;;;;;;;;;;5032574;28;20477;-81
2023/05/12 06:47:56;;;;;;;24.73;22.03;;;;;;;;;;5032006;28;20459;-81
2023/05/12 06:50:23;;;;;;;26.07;23.10;;;;;;;;;;5026352;28;20467;-81
2023/05/12 06:52:51;;;;;;;23.67;21.20;;;;;;;;;;5026110;28;20476;-81
2023/05/12 06:55:19;;;;;;;25.20;22.37;;;;;;;;;;5032501;28;20554;-81
2023/05/12 06:57:45;;;;;;;24.30;21.80;;;;;;;;;;5033123;28;20451;-81
2023/05/12 07:00:12;;;;;;;24.80;22.20;;;;;;;;;;5032015;28;20798;-79
2023/05/12 07:02:38;;;;;;;23.17;20.00;;;;;;;;;;5030027;28;20451;-79
2023/05/12 07:05:05;;;;;;;25.07;20.50;;;;;;;;;;5030321;28;20479;-81
2023/05/12 07:07:32;;;;;;;24.80;18.87;;;;;;;;;;5027723;28;20493;-79
2023/05/12 07:09:59;;;;;;;19.93;17.93;;;;;;;;;;5032006;28;20439;-80
2023/05/12 07:12:26;;;;;;;20.97;18.87;;;;;;;;;;5031456;28;20454;-79
2023/05/12 07:14:53;;;;;;;20.30;18.00;;;;;;;;;;5028946;28;20451;-79
2023/05/12 07:17:21;;;;;;;20.87;17.20;;;;;;;;;;5039334;28;20446;-79
2023/05/12 07:19:47;;;;;;;18.53;16.60;;;;;;;;;;5033879;28;20471;-79
2023/05/12 07:22:14;;;;;;;18.70;15.40;;;;;;;;;;5032610;28;20454;-79
2023/05/12 07:24:40;;;;;;;15.87;14.27;;;;;;;;;;5035183;28;20491;-79
2023/05/12 07:27:08;;;;;;;16.93;13.83;;;;;;;;;;5024026;28;20543;-79
2023/05/12 07:29:35;;;;;;;17.00;15.30;;;;;;;;;;5035567;28;20459;-79
2023/05/12 07:32:01;;;;;;;16.27;14.57;;;;;;;;;;5023116;28;20518;-79
2023/05/12 07:34:28;;;;;;;15.20;13.67;;;;;;;;;;5035853;28;20484;-79
2023/05/12 07:36:54;;;;;;;15.07;13.57;;;;;;;;;;5035374;28;20472;-79
2023/05/12 07:39:22;;;;;;;14.90;13.53;;;;;;;;;;5031152;28;20541;-79
2023/05/12 07:41:49;;;;;;;13.80;12.50;;;;;;;;;;5034004;28;20531;-79
2023/05/12 07:44:17;;;;;;;14.87;13.33;;;;;;;;;;5035240;28;20477;-79
2023/05/12 07:46:43;;;;;;;12.90;11.53;;;;;;;;;;5033289;28;21002;-79
2023/05/12 07:49:09;;;;;;;13.20;11.77;;;;;;;;;;5035433;28;20440;-79
2023/05/12 07:51:36;;;;;;;13.33;12.00;;;;;;;;;;5034603;28;20476;-79
2023/05/12 07:54:04;;;;;;;13.70;12.27;;;;;;;;;;5035255;28;20461;-79
2023/05/12 07:56:31;;;;;;;13.90;12.50;;;;;;;;;;5034179;28;20476;-79
2023/05/12 07:58:57;;;;;;;12.97;11.67;;;;;;;;;;5035195;28;20456;-79
2023/05/12 08:01:26;;;;;;;13.80;12.40;;;;;;;;;;5034334;28;20475;-79
2023/05/12 08:03:53;;;;;;;14.50;13.03;;;;;;;;;;5035150;28;20444;-79
2023/05/12 08:06:19;;;;;;;13.70;12.40;;;;;;;;;;5035605;28;20468;-79
2023/05/12 08:08:45;;;;;;;12.83;11.53;;;;;;;;;;5035049;28;20468;-79
2023/05/12 08:11:12;;;;;;;16.77;13.07;;;;;;;;;;5036419;28;20832;-79
2023/05/12 08:13:38;;;;;;;12.77;11.47;;;;;;;;;;5029726;28;20514;-79
2023/05/12 08:16:05;;;;;;;14.30;12.80;;;;;;;;;;5029122;28;20480;-78
2023/05/12 08:18:32;;;;;;;13.40;11.10;;;;;;;;;;5034907;28;20451;-79
2023/05/12 08:20:59;;;;;;;11.47;10.37;;;;;;;;;;5028884;28;20446;-79
2023/05/12 08:23:25;;;;;;;11.90;10.80;;;;;;;;;;5016135;28;20866;-79
2023/05/12 08:25:52;;;;;;;12.40;11.30;;;;;;;;;;5032824;28;20468;-79
2023/05/12 08:28:18;;;;;;;11.63;10.63;;;;;;;;;;5032479;28;20441;-79
2023/05/12 08:30:44;;;;;;;12.90;11.40;;;;;;;;;;5033493;28;20472;-80
2023/05/12 08:33:11;;;;;;;11.43;10.33;;;;;;;;;;5032988;28;20476;-80
2023/05/12 08:35:38;;;;;;;11.63;10.53;;;;;;;;;;5032017;28;20484;-80
2023/05/12 08:38:05;;;;;;;10.93;9.93;;;;;;;;;;5032644;28;20469;-80
2023/05/12 08:40:34;;;;;;;12.40;10.47;;;;;;;;;;5030876;28;20465;-80
2023/05/12 08:43:05;;;;;;;9.90;9.00;;;;;;;;;;5033510;28;21024;-80
2023/05/12 08:45:32;;;;;;;10.20;9.20;;;;;;;;;;5033855;28;20465;-80
2023/05/12 08:48:00;;;;;;;11.90;9.80;;;;;;;;;;5011149;28;20832;-80
2023/05/12 08:50:26;;;;;;;11.30;8.80;;;;;;;;;;5031518;28;20465;-80
2023/05/12 08:52:55;;;;;;;9.50;8.50;;;;;;;;;;5029525;28;20483;-80
2023/05/12 08:55:22;;;;;;;9.73;8.80;;;;;;;;;;5028096;28;20579;-80
2023/05/12 08:57:48;;;;;;;10.13;8.73;;;;;;;;;;5033450;28;20852;-80
2023/05/12 09:00:16;;;;;;;10.27;8.80;;;;;;;;;;5004867;28;20468;-80
2023/05/12 09:02:43;;;;;;;9.37;8.47;;;;;;;;;;5030049;28;20477;-80
2023/05/12 09:05:10;;;;;;;9.17;8.27;;;;;;;;;;5033773;28;20555;-80
2023/05/12 09:07:39;;;;;;;9.70;8.80;;;;;;;;;;5030116;28;20557;-80
2023/05/12 09:10:11;;;;;;;14.83;8.43;;;;;;;;;;5016123;28;20973;-80
2023/05/12 09:12:38;;;;;;;16.17;8.20;;;;;;;;;;5030332;28;21002;-80
2023/05/12 09:15:06;;;;;;;8.50;7.80;;;;;;;;;;5036312;28;20488;-80
2023/05/12 09:17:35;;;;;;;8.90;8.00;;;;;;;;;;5028142;28;20477;-79
2023/05/12 09:20:02;;;;;;;9.83;7.87;;;;;;;;;;5031836;28;20453;-79
2023/05/12 09:22:32;;;;;;;16.70;9.07;;;;;;;;;;5024464;28;20473;-79
2023/05/12 09:24:59;;;;;;;9.43;8.50;;;;;;;;;;5033624;28;20477;-79
2023/05/12 09:27:27;;;;;;;9.20;8.27;;;;;;;;;;5033029;28;20504;-79
2023/05/12 09:29:53;;;;;;;11.87;8.10;;;;;;;;;;5032262;28;20965;-79
2023/05/12 09:32:30;;;;;;;9.03;7.40;;;;;;;;;;5032889;28;20473;-78
2023/05/12 09:34:56;;;;;;;7.90;7.20;;;;;;;;;;5031872;28;20464;-79
2023/05/12 09:37:30;;;;;;;7.40;6.70;;;;;;;;;;5037419;28;20480;-79
2023/05/12 09:39:58;;;;;;;10.83;5.93;;;;;;;;;;5031304;28;20482;-79
2023/05/12 09:42:28;;;;;;;7.20;5.93;;;;;;;;;;5028333;28;20469;-79
2023/05/12 09:44:57;;;;;;;8.40;6.20;;;;;;;;;;5030608;28;20849;-79
2023/05/12 09:47:27;;;;;;;8.50;6.23;;;;;;;;;;5012762;28;20496;-79
2023/05/12 09:49:54;;;;;;;7.20;5.90;;;;;;;;;;5032764;28;20954;-79
2023/05/12 09:52:21;;;;;;;6.10;4.97;;;;;;;;;;5029065;28;20853;-79
2023/05/12 09:54:47;;;;;;;9.50;5.40;;;;;;;;;;5029838;28;20486;-79
2023/05/12 09:57:16;;;;;;;7.23;5.80;;;;;;;;;;5032005;28;20508;-79
2023/05/12 09:59:44;;;;;;;6.70;6.10;;;;;;;;;;5032854;28;20452;-79
2023/05/12 10:02:11;;;;;;;9.90;5.07;;;;;;;;;;5016364;28;20475;-79
2023/05/12 10:04:43;;;;;;;6.30;5.57;;;;;;;;;;5032777;28;20481;-79
2023/05/12 10:07:11;;;;;;;6.23;5.63;;;;;;;;;;5030282;28;20461;-79
2023/05/12 10:09:40;;;;;;;6.17;5.53;;;;;;;;;;5032736;28;20456;-79
2023/05/12 10:12:08;;;;;;;6.20;5.70;;;;;;;;;;5027310;28;20476;-79
2023/05/12 10:14:35;;;;;;;10.53;6.33;;;;;;;;;;5015341;28;20491;-79
2023/05/12 10:17:03;;;;;;;6.57;5.23;;;;;;;;;;5032237;28;20476;-79
2023/05/12 10:19:30;;;;;;;6.43;5.67;;;;;;;;;;5022971;28;20448;-79
2023/05/12 10:21:57;;;;;;;7.93;5.43;;;;;;;;;;5033587;28;20472;-79
2023/05/12 10:24:25;;;;;;;6.43;5.30;;;;;;;;;;5036644;28;20483;-79
2023/05/12 10:26:54;;;;;;;5.70;5.10;;;;;;;;;;5013844;28;20484;-80
2023/05/12 10:29:21;;;;;;;7.57;6.40;;;;;;;;;;5022903;28;20536;-79
2023/05/12 10:31:48;;;;;;;8.47;6.40;;;;;;;;;;5027894;28;20468;-79
2023/05/12 10:34:18;;;;;;;6.00;5.50;;;;;;;;;;5029559;28;20999;-79
2023/05/12 10:36:48;;;;;;;7.20;6.50;;;;;;;;;;5019651;28;20889;-79
2023/05/12 10:39:15;;;;;;;9.37;6.43;;;;;;;;;;5032207;28;20854;-79
2023/05/12 10:41:42;;;;;;;6.63;6.00;;;;;;;;;;5029234;28;20477;-79
2023/05/12 10:44:09;;;;;;;6.80;6.10;;;;;;;;;;5032365;28;20472;-79
2023/05/12 10:46:36;;;;;;;6.97;6.27;;;;;;;;;;5028776;28;20545;-79
2023/05/12 10:49:03;;;;;;;7.50;6.80;;;;;;;;;;5033117;28;20451;-79
2023/05/12 10:51:31;;;;;;;6.53;5.93;;;;;;;;;;5035985;28;20472;-79
2023/05/12 10:53:59;;;;;;;7.60;5.70;;;;;;;;;;5036217;28;20967;-79
2023/05/12 10:56:27;;;;;;;7.00;5.73;;;;;;;;;;5036014;28;20552;-79
2023/05/12 10:59:11;;;;;;;7.13;6.43;;;;;;;;;;5034826;28;20483;-79
2023/05/12 11:01:38;;;;;;;6.07;5.23;;;;;;;;;;5036776;28;20473;-80
2023/05/12 11:04:11;;;;;;;11.00;5.67;;;;;;;;;;5017051;28;20464;-80
2023/05/12 11:06:39;;;;;;;6.63;6.03;;;;;;;;;;5012259;28;20480;-80
2023/05/12 11:09:06;;;;;;;11.20;7.10;;;;;;;;;;5031732;28;20811;-79
2023/05/12 11:11:33;;;;;;;7.20;5.63;;;;;;;;;;5035664;28;20469;-79
2023/05/12 11:14:01;;;;;;;8.00;7.00;;;;;;;;;;5035200;28;20476;-79
2023/05/12 11:16:27;;;;;;;9.60;6.57;;;;;;;;;;5031989;28;20469;-79
2023/05/12 11:19:00;;;;;;;7.10;6.40;;;;;;;;;;5031734;28;20949;-79
2023/05/12 11:21:29;;;;;;;8.70;7.20;;;;;;;;;;5035967;28;20473;-79
2023/05/12 11:23:57;;;;;;;7.60;7.00;;;;;;;;;;5029227;28;21001;-79
2023/05/12 11:26:23;;;;;;;6.20;5.63;;;;;;;;;;5035435;28;20475;-79
2023/05/12 11:28:49;;;;;;;6.20;5.60;;;;;;;;;;5031793;28;20461;-79
2023/05/12 11:31:17;;;;;;;9.80;6.17;;;;;;;;;;5026059;28;20860;-79
2023/05/12 11:33:44;;;;;;;8.00;6.60;;;;;;;;;;5035725;28;20452;-79
2023/05/12 11:36:10;;;;;;;10.57;6.00;;;;;;;;;;5031656;28;20480;-79
2023/05/12 11:38:36;;;;;;;6.80;6.20;;;;;;;;;;5030272;28;20446;-78
2023/05/12 11:41:05;;;;;;;7.50;6.80;;;;;;;;;;5035529;28;20539;-79
2023/05/12 11:43:32;;;;;;;7.23;6.63;;;;;;;;;;5035028;28;20448;-79
2023/05/12 11:45:58;;;;;;;8.90;7.10;;;;;;;;;;5034886;28;20463;-80
2023/05/12 11:48:32;;;;;;;7.47;5.97;;;;;;;;;;5030403;28;20489;-79
2023/05/12 11:50:58;;;;;;;8.30;6.27;;;;;;;;;;5035143;28;20814;-79
2023/05/12 11:53:25;;;;;;;7.07;6.47;;;;;;;;;;5030568;28;20466;-79
2023/05/12 11:55:52;;;;;;;9.47;6.30;;;;;;;;;;5033303;28;20481;-79
2023/05/12 11:58:21;;;;;;;6.20;5.70;;;;;;;;;;5037395;28;20472;-78
2023/05/12 12:00:48;;;;;;;8.03;5.93;;;;;;;;;;5030077;28;20465;-79
2023/05/12 12:03:15;;;;;;;7.70;5.50;;;;;;;;;;5027036;28;20468;-79
2023/05/12 12:05:42;;;;;;;6.93;6.03;;;;;;;;;;5035537;28;20469;-79
2023/05/12 12:08:11;;;;;;;6.43;5.77;;;;;;;;;;5032669;28;20499;-79
2023/05/12 12:10:37;;;;;;;6.43;5.83;;;;;;;;;;5035175;28;20461;-79
2023/05/12 12:13:05;;;;;;;7.00;5.50;;;;;;;;;;5035051;28;21002;-79
2023/05/12 12:15:35;;;;;;;6.07;5.60;;;;;;;;;;5037062;28;20468;-80
2023/05/12 12:18:02;;;;;;;6.67;6.17;;;;;;;;;;5035192;28;20508;-79
2023/05/12 12:20:28;;;;;;;7.23;5.63;;;;;;;;;;5034246;28;20966;-78
2023/05/12 12:22:55;;;;;;;6.60;5.50;;;;;;;;;;5035778;28;20477;-79
2023/05/12 12:25:23;;;;;;;5.60;5.10;;;;;;;;;;5014909;28;20469;-79
2023/05/12 12:27:49;;;;;;;5.50;5.00;;;;;;;;;;5032304;28;20487;-79
2023/05/12 12:30:16;;;;;;;6.97;5.70;;;;;;;;;;5033119;28;20899;-78
2023/05/12 12:32:45;;;;;;;6.30;5.70;;;;;;;;;;5035594;28;20497;-79
2023/05/12 12:35:12;;;;;;;5.93;4.67;;;;;;;;;;5034214;28;20488;-79
2023/05/12 12:37:38;;;;;;;5.73;5.23;;;;;;;;;;5026855;28;20476;-79
2023/05/12 12:40:07;;;;;;;5.77;5.27;;;;;;;;;;5034343;28;20806;-78
2023/05/12 12:42:35;;;;;;;8.37;4.73;;;;;;;;;;5033754;28;20559;-79
2023/05/12 12:45:01;;;;;;;5.37;4.93;;;;;;;;;;5034558;28;20476;-78
2023/05/12 12:47:27;;;;;;;7.70;4.83;;;;;;;;;;5028385;28;20465;-79
2023/05/12 12:49:55;;;;;;;7.77;5.07;;;;;;;;;;5032596;28;20460;-78
2023/05/12 12:52:23;;;;;;;4.73;4.33;;;;;;;;;;5028348;28;21030;-79
2023/05/12 12:54:49;;;;;;;6.67;4.87;;;;;;;;;;5033331;28;21064;-78
2023/05/12 12:57:16;;;;;;;5.40;4.30;;;;;;;;;;5033608;28;20487;-79
2023/05/12 12:59:42;;;;;;;5.20;4.23;;;;;;;;;;5031539;28;20449;-79
2023/05/12 13:02:08;;;;;;;5.73;4.40;;;;;;;;;;5033571;28;20469;-79
2023/05/12 13:04:35;;;;;;;5.77;5.10;;;;;;;;;;5031013;28;20457;-79
2023/05/12 13:07:02;;;;;;;6.47;4.67;;;;;;;;;;5028751;28;20477;-79
2023/05/12 13:09:29;;;;;;;5.80;5.30;;;;;;;;;;5029419;28;20468;-79
2023/05/12 13:11:55;;;;;;;6.63;6.03;;;;;;;;;;5031627;28;20479;-78
2023/05/12 13:14:23;;;;;;;4.70;4.30;;;;;;;;;;5033362;28;20480;-79
2023/05/12 13:16:49;;;;;;;5.87;4.47;;;;;;;;;;5030295;28;20476;-78
2023/05/12 13:19:15;;;;;;;5.33;4.83;;;;;;;;;;5033876;28;20445;-79
2023/05/12 13:21:42;;;;;;;5.20;4.77;;;;;;;;;;5028380;28;20487;-80
2023/05/12 13:24:09;;;;;;;5.80;4.70;;;;;;;;;;5031572;28;20484;-78
2023/05/12 13:26:36;;;;;;;5.50;4.83;;;;;;;;;;5030814;28;20475;-80
2023/05/12 13:29:03;;;;;;;4.80;4.40;;;;;;;;;;5029251;28;20472;-80
2023/05/12 13:31:29;;;;;;;5.07;4.63;;;;;;;;;;5030423;28;20473;-79
2023/05/12 13:33:56;;;;;;;7.23;5.27;;;;;;;;;;5033853;28;20496;-81
2023/05/12 13:36:22;;;;;;;5.80;5.30;;;;;;;;;;5030320;28;20481;-80
2023/05/12 13:38:48;;;;;;;5.40;5.00;;;;;;;;;;5030331;28;20464;-80
2023/05/12 13:41:18;;;;;;;6.33;4.70;;;;;;;;;;5032224;28;20465;-80
2023/05/12 13:43:45;;;;;;;7.00;4.90;;;;;;;;;;5031745;28;20448;-81
2023/05/12 13:46:11;;;;;;;6.97;5.47;;;;;;;;;;5032200;28;20465;-79
2023/05/12 13:48:37;;;;;;;5.50;4.73;;;;;;;;;;5029411;28;20942;-80
2023/05/12 13:51:04;;;;;;;7.40;5.67;;;;;;;;;;5032897;28;20453;-80
2023/05/12 13:53:31;;;;;;;9.23;5.03;;;;;;;;;;5029810;28;20456;-80
2023/05/12 13:55:57;;;;;;;6.47;5.73;;;;;;;;;;5031703;28;20477;-80
2023/05/12 13:58:25;;;;;;;6.10;5.50;;;;;;;;;;5032212;28;20480;-79
2023/05/12 14:00:51;;;;;;;5.33;4.70;;;;;;;;;;5035399;28;20467;-80
2023/05/12 14:03:18;;;;;;;7.43;5.63;;;;;;;;;;5035635;28;20457;-80
2023/05/12 14:05:45;;;;;;;5.67;5.20;;;;;;;;;;5034340;28;21003;-78
2023/05/12 14:08:11;;;;;;;8.07;5.47;;;;;;;;;;5029893;28;20463;-78
2023/05/12 14:10:37;;;;;;;5.53;5.10;;;;;;;;;;5031978;28;20453;-78
2023/05/12 14:13:05;;;;;;;7.43;5.37;;;;;;;;;;5031958;28;20480;-78
2023/05/12 14:15:33;;;;;;;7.47;4.73;;;;;;;;;;5032249;28;20904;-78
2023/05/12 14:17:59;;;;;;;6.13;5.53;;;;;;;;;;5029635;28;20496;-78
2023/05/12 14:20:26;;;;;;;5.73;5.10;;;;;;;;;;5021298;28;20464;-77
2023/05/12 14:22:52;;;;;;;7.47;5.63;;;;;;;;;;5028141;28;20488;-78
2023/05/12 14:25:18;;;;;;;8.07;4.83;;;;;;;;;;5033242;28;20460;-79